Time;durP1;ratioP1;P1;durP2;ratioP2;P2;SDS_P1;SDS_P2;PMS_P1;PMS_P2;Temp;Humidity;BMP_temperature;BMP_pressure;BME280_temperature;BME280_humidity;BME280_pressure;Samples;Min_cycle;Max_cycle;Signal;HPM_P1;HPM_P2
2022/04/02 00:02:17;;;;;;;4.13;1.25;;;;;;;10.85;68.42;92936.47;5019268;28;20618;-77
2022/04/02 00:04:44;;;;;;;7.72;0.93;;;;;;;10.92;66.97;92936.56;5024484;28;20201;-77
2022/04/02 00:07:11;;;;;;;2.53;0.90;;;;;;;10.96;67.26;92953.59;5013060;28;20449;-77
2022/04/02 00:09:38;;;;;;;4.10;1.10;;;;;;;11.12;67.08;92946.03;5023837;28;20699;-76
2022/04/02 00:12:05;;;;;;;4.20;1.15;;;;;;;11.09;67.92;92957.63;5014177;28;20295;-77
2022/04/02 00:14:34;;;;;;;3.38;1.52;;;;;;;10.90;68.41;92939.63;5024218;28;20507;-76
2022/04/02 00:17:01;;;;;;;3.70;1.15;;;;;;;10.78;69.91;92950.72;5024507;28;20701;-77
2022/04/02 00:19:29;;;;;;;2.92;1.30;;;;;;;10.78;69.13;92953.44;5020341;28;20679;-77
2022/04/02 00:21:55;;;;;;;5.88;1.45;;;;;;;10.94;67.25;92975.66;5018442;28;20205;-77
2022/04/02 00:24:22;;;;;;;1.08;0.43;;;;;;;11.05;62.95;92959.53;5021196;28;20653;-74
2022/04/02 00:26:49;;;;;;;0.57;0.50;;;;;;;11.14;62.72;92965.44;5025569;28;20254;-76
2022/04/02 00:29:16;;;;;;;1.15;0.40;;;;;;;11.08;62.41;92966.91;5012164;28;20645;-77
2022/04/02 00:31:45;;;;;;;0.32;0.30;;;;;;;11.12;61.23;92943.34;5014311;28;20201;-75
2022/04/02 00:34:12;;;;;;;0.57;0.45;;;;;;;11.29;58.81;92939.25;5021969;28;20216;-72
2022/04/02 00:36:39;;;;;;;2.30;0.98;;;;;;;11.24;60.89;92959.31;5025146;28;20232;-76
2022/04/02 00:39:07;;;;;;;0.73;0.38;;;;;;;11.35;59.32;92976.47;5022047;28;20211;-76
2022/04/02 00:41:34;;;;;;;2.90;0.65;;;;;;;11.53;58.53;92973.94;5018489;28;20196;-76
2022/04/02 00:44:09;;;;;;;2.25;0.70;;;;;;;11.52;58.31;92963.47;5020933;28;20606;-76
2022/04/02 00:46:37;;;;;;;1.92;0.40;;;;;;;11.49;58.30;92975.03;5024963;28;20667;-77
2022/04/02 00:49:06;;;;;;;1.73;0.55;;;;;;;11.31;60.45;92978.38;5022975;28;20239;-77
2022/04/02 00:51:34;;;;;;;0.88;0.30;;;;;;;11.15;60.10;92961.56;5018285;28;20698;-76
2022/04/02 00:54:01;;;;;;;0.75;0.50;;;;;;;11.10;60.07;92986.28;5018704;28;20739;-76
2022/04/02 00:56:29;;;;;;;0.45;0.30;;;;;;;10.94;61.02;92978.34;5024867;28;20275;-77
2022/04/02 00:58:56;;;;;;;1.05;0.45;;;;;;;10.98;59.53;92978.41;5024731;28;20201;-78
2022/04/02 01:01:23;;;;;;;0.82;0.50;;;;;;;11.16;58.99;92979.38;5018565;28;20303;-76
2022/04/02 01:03:50;;;;;;;0.70;0.40;;;;;;;11.30;59.03;92965.97;5017972;28;20660;-76
2022/04/02 01:06:19;;;;;;;0.73;0.40;;;;;;;11.28;60.23;92971.00;5024828;28;20205;-76
2022/04/02 01:08:47;;;;;;;1.60;0.90;;;;;;;11.22;60.72;92983.31;5025411;28;20231;-75
2022/04/02 01:11:13;;;;;;;1.00;0.77;;;;;;;11.20;60.51;92985.63;5031719;28;20291;-77
2022/04/02 01:13:40;;;;;;;1.70;0.85;;;;;;;11.15;59.98;92988.66;5018250;28;20224;-78
2022/04/02 01:16:08;;;;;;;1.48;0.50;;;;;;;11.31;59.29;92991.94;5023368;28;20229;-77
2022/04/02 01:18:34;;;;;;;0.70;0.50;;;;;;;11.24;61.21;92985.66;5024740;28;20290;-77
2022/04/02 01:21:02;;;;;;;1.95;0.60;;;;;;;11.20;61.64;92996.47;5019761;28;20577;-76
2022/04/02 01:23:31;;;;;;;2.85;0.70;;;;;;;11.02;60.15;92990.06;5019781;28;20560;-76
2022/04/02 01:25:59;;;;;;;1.60;0.90;;;;;;;11.08;60.70;92983.16;5022541;28;20209;-76
2022/04/02 01:28:33;;;;;;;2.10;1.23;;;;;;;11.02;61.26;92981.94;5024350;28;20232;-77
2022/04/02 01:31:01;;;;;;;0.82;0.80;;;;;;;11.02;61.84;92990.06;5021663;28;20196;-72
2022/04/02 01:33:28;;;;;;;0.85;0.60;;;;;;;11.29;58.58;92993.44;5017481;28;20240;-76
2022/04/02 01:36:00;;;;;;;1.08;0.52;;;;;;;11.41;57.81;93001.31;5030977;28;20645;-78
2022/04/02 01:38:27;;;;;;;0.68;0.60;;;;;;;11.36;58.67;92994.28;5017923;28;20211;-78
2022/04/02 01:40:57;;;;;;;2.28;0.60;;;;;;;11.33;58.10;92994.28;5018862;28;20205;-76
2022/04/02 01:43:24;;;;;;;1.10;0.63;;;;;;;11.25;59.47;93009.66;5015945;28;20223;-76
2022/04/02 01:45:54;;;;;;;0.50;0.50;;;;;;;11.18;59.57;93001.47;5018172;28;20197;-76
2022/04/02 01:48:21;;;;;;;5.07;0.90;;;;;;;11.11;60.14;93009.50;5024321;28;20308;-77
2022/04/02 01:50:49;;;;;;;1.50;0.65;;;;;;;11.03;60.42;93002.47;5023739;28;20678;-75
2022/04/02 01:53:16;;;;;;;1.67;0.63;;;;;;;10.93;61.69;93030.22;5024128;28;20205;-76
2022/04/02 01:55:43;;;;;;;0.68;0.60;;;;;;;10.95;59.65;93022.47;5023513;28;20204;-75
2022/04/02 01:58:11;;;;;;;0.73;0.55;;;;;;;11.13;59.91;93018.06;5017159;28;20208;-75
2022/04/02 02:00:39;;;;;;;5.07;0.70;;;;;;;11.15;59.42;93020.41;5016958;28;20208;-75
2022/04/02 02:03:06;;;;;;;2.58;0.52;;;;;;;11.09;59.66;93025.34;5031166;28;20614;-75
2022/04/02 02:05:33;;;;;;;0.82;0.60;;;;;;;10.94;61.52;93035.25;5017373;28;20304;-75
2022/04/02 02:08:00;;;;;;;1.23;0.90;;;;;;;10.91;61.69;93024.38;5023110;28;20583;-76
2022/04/02 02:10:27;;;;;;;1.77;0.70;;;;;;;10.83;59.99;93011.88;5024927;28;20204;-75
2022/04/02 02:12:54;;;;;;;0.60;0.50;;;;;;;10.87;59.72;92993.75;5031003;28;20201;-75
2022/04/02 02:15:23;;;;;;;0.57;0.57;;;;;;;10.73;60.74;92999.00;5017797;28;20240;-75
2022/04/02 02:17:52;;;;;;;0.70;0.43;;;;;;;10.88;59.17;92995.31;5022372;28;20198;-75
2022/04/02 02:20:19;;;;;;;2.15;0.50;;;;;;;10.79;60.20;92992.13;5023909;28;20196;-75
2022/04/02 02:22:47;;;;;;;2.38;0.70;;;;;;;10.60;61.25;92984.91;5019625;28;20204;-75
2022/04/02 02:25:16;;;;;;;1.35;0.45;;;;;;;10.64;60.05;92975.72;5017208;28;20240;-75
2022/04/02 02:27:45;;;;;;;0.63;0.43;;;;;;;10.72;60.30;92992.03;5020592;28;20209;-75
2022/04/02 02:30:14;;;;;;;0.82;0.38;;;;;;;10.95;59.02;92971.78;5024013;28;20201;-75
2022/04/02 02:32:42;;;;;;;2.47;0.50;;;;;;;10.84;59.25;92972.81;5010565;28;20260;-76
2022/04/02 02:38:04;;;;;;;1.90;0.68;;;;;;;10.84;59.53;92989.06;5024099;28;20331;-76
2022/04/02 02:40:30;;;;;;;0.88;0.45;;;;;;;10.68;60.36;92979.22;5021582;28;20557;-75
2022/04/02 02:42:57;;;;;;;2.90;0.60;;;;;;;10.55;60.67;92972.47;5020733;28;20220;-75
2022/04/02 02:45:25;;;;;;;1.92;0.50;;;;;;;10.49;61.28;92984.78;5025562;28;20240;-75
2022/04/02 02:47:53;;;;;;;3.35;0.60;;;;;;;10.55;60.19;92964.34;5027464;28;20232;-75
2022/04/02 02:50:20;;;;;;;0.93;0.70;;;;;;;10.62;60.13;92977.22;5022579;28;20562;-76
2022/04/02 02:52:47;;;;;;;1.40;0.85;;;;;;;10.61;60.14;92952.06;5020768;28;20208;-75
2022/04/02 02:55:14;;;;;;;3.08;0.60;;;;;;;10.56;61.05;92982.16;5024747;28;20205;-75
2022/04/02 02:57:44;;;;;;;1.10;0.50;;;;;;;10.52;61.71;92984.03;5030227;28;20204;-74
2022/04/02 03:00:13;;;;;;;2.92;0.75;;;;;;;10.41;61.66;92972.28;5023630;28;20209;-75
2022/04/02 03:02:40;;;;;;;0.60;0.60;;;;;;;10.46;62.35;92979.31;5026543;28;20569;-75
2022/04/02 03:05:11;;;;;;;1.10;0.77;;;;;;;10.37;62.06;92971.47;5024212;28;20207;-75
2022/04/02 03:07:39;;;;;;;0.43;0.40;;;;;;;10.37;61.79;92965.28;5019889;28;20651;-74
2022/04/02 03:10:07;;;;;;;1.95;0.55;;;;;;;10.41;60.65;92983.13;5033567;28;20319;-75
2022/04/02 03:12:34;;;;;;;0.93;0.70;;;;;;;10.49;61.63;92990.19;5027681;28;20675;-75
2022/04/02 03:15:02;;;;;;;0.40;0.40;;;;;;;10.88;58.31;92989.91;5025455;28;20207;-72
2022/04/02 03:17:30;;;;;;;0.30;0.30;;;;;;;11.02;56.90;92977.31;5020248;28;20259;-74
2022/04/02 03:19:58;;;;;;;0.47;0.30;;;;;;;10.97;58.21;92979.56;5020863;28;20262;-70
2022/04/02 03:22:27;;;;;;;0.55;0.30;;;;;;;11.21;56.73;92992.59;5026780;28;20224;-75
2022/04/02 03:24:54;;;;;;;1.25;0.60;;;;;;;11.14;56.97;93008.78;5015933;28;20209;-75
2022/04/02 03:27:21;;;;;;;2.33;0.60;;;;;;;10.90;57.88;93017.41;5026497;28;20663;-76
2022/04/02 03:29:48;;;;;;;0.60;0.50;;;;;;;11.00;57.23;93003.19;5026426;28;20232;-75
2022/04/02 03:32:15;;;;;;;0.50;0.50;;;;;;;10.94;58.08;93007.38;5020013;28;20204;-75
2022/04/02 03:34:42;;;;;;;0.43;0.43;;;;;;;11.06;57.13;93023.41;5019063;28;20210;-72
2022/04/02 03:37:09;;;;;;;2.05;0.60;;;;;;;11.09;56.16;92992.84;5013016;28;20205;-74
2022/04/02 03:39:37;;;;;;;0.50;0.50;;;;;;;10.90;58.34;93003.88;5026665;28;20601;-75
2022/04/02 03:42:04;;;;;;;0.77;0.77;;;;;;;10.67;59.65;92993.91;5025583;28;20216;-74
2022/04/02 03:44:32;;;;;;;0.50;0.50;;;;;;;10.55;60.01;93013.09;5012336;28;20243;-73
2022/04/02 03:47:10;;;;;;;2.47;0.90;;;;;;;10.47;62.39;93016.06;5012955;28;20205;-74
2022/04/02 03:49:39;;;;;;;0.95;0.50;;;;;;;10.45;60.19;93002.91;5012600;28;21238;-72
2022/04/02 03:52:07;;;;;;;1.02;0.60;;;;;;;10.45;61.17;93029.19;5011898;28;20218;-74
2022/04/02 03:54:36;;;;;;;0.60;0.60;;;;;;;10.35;60.52;93002.75;5013040;28;20272;-77
2022/04/02 03:57:06;;;;;;;1.30;0.82;;;;;;;10.37;61.34;93003.97;5012272;28;20213;-75
2022/04/02 03:59:33;;;;;;;0.73;0.57;;;;;;;10.26;62.27;93003.78;5012725;28;20205;-73
2022/04/02 04:02:00;;;;;;;2.90;1.00;;;;;;;10.15;63.69;93012.88;5012250;28;20680;-75
2022/04/02 04:04:28;;;;;;;2.15;0.80;;;;;;;10.06;63.84;93031.28;5011775;28;20292;-75
2022/04/02 04:06:56;;;;;;;1.83;0.73;;;;;;;9.99;63.99;93027.31;5012097;28;20211;-74
2022/04/02 04:09:23;;;;;;;0.85;0.60;;;;;;;10.11;61.56;93033.69;5017970;28;20621;-73
2022/04/02 04:11:51;;;;;;;1.80;0.73;;;;;;;10.00;62.09;93038.91;5019278;28;20212;-75
2022/04/02 04:14:19;;;;;;;1.38;0.73;;;;;;;9.92;63.72;93042.66;5011011;28;20224;-75
2022/04/02 04:16:46;;;;;;;1.27;0.85;;;;;;;9.92;64.77;93070.50;5011348;28;20235;-74
2022/04/02 04:19:14;;;;;;;0.47;0.47;;;;;;;10.18;59.03;93067.06;5012254;28;20275;-74
2022/04/02 04:21:42;;;;;;;2.50;0.70;;;;;;;10.78;59.37;93079.94;5012222;28;20241;-75
2022/04/02 04:24:10;;;;;;;1.02;0.63;;;;;;;11.57;57.50;93052.59;5021017;28;20602;-73
2022/04/02 04:26:38;;;;;;;3.22;0.85;;;;;;;12.06;57.10;93069.38;5030760;28;20663;-75
2022/04/02 04:29:06;;;;;;;1.63;1.15;;;;;;;12.55;55.14;93057.34;5031405;28;20239;-74
2022/04/02 04:31:33;;;;;;;4.22;1.15;;;;;;;13.48;53.49;93069.47;5031513;28;20613;-75
2022/04/02 04:34:00;;;;;;;0.50;0.40;;;;;;;13.37;48.06;93053.13;5031401;28;20212;-75
2022/04/02 04:36:27;;;;;;;1.40;0.80;;;;;;;13.94;51.31;93082.44;5031203;28;20212;-76
2022/04/02 04:38:54;;;;;;;2.03;1.00;;;;;;;13.47;52.42;93073.38;5031207;28;20274;-73
2022/04/02 04:41:21;;;;;;;1.20;0.75;;;;;;;13.69;49.41;93068.75;5031104;28;20204;-77
2022/04/02 04:43:49;;;;;;;1.45;0.60;;;;;;;13.07;52.32;93071.63;5031209;28;20239;-75
2022/04/02 04:46:18;;;;;;;0.73;0.70;;;;;;;13.42;51.72;93077.22;5030824;28;20204;-77
2022/04/02 04:48:46;;;;;;;2.97;0.95;;;;;;;14.72;50.40;93091.44;5031535;28;20426;-75
2022/04/02 04:51:14;;;;;;;4.43;1.00;;;;;;;16.09;46.56;93080.44;5031615;28;20208;-74
2022/04/02 04:53:41;;;;;;;3.75;1.25;;;;;;;15.70;47.48;93090.81;5030489;28;20224;-75
2022/04/02 04:56:09;;;;;;;4.35;1.55;;;;;;;15.45;46.75;93072.53;5031269;28;20200;-74
2022/04/02 04:58:36;;;;;;;4.78;0.88;;;;;;;15.66;45.95;93076.41;5030984;28;20616;-74
2022/04/02 05:01:02;;;;;;;3.95;1.38;;;;;;;14.84;48.39;93093.75;5030994;28;20220;-73
2022/04/02 05:03:32;;;;;;;2.83;1.20;;;;;;;14.35;49.33;93093.78;5030794;28;20213;-74
2022/04/02 05:05:59;;;;;;;1.65;1.08;;;;;;;15.90;47.55;93081.72;5028004;28;20240;-74
2022/04/02 05:08:26;;;;;;;3.38;1.20;;;;;;;16.63;44.64;93075.41;5011296;28;20293;-75
2022/04/02 05:10:54;;;;;;;3.60;1.55;;;;;;;17.90;42.71;93092.44;5024752;28;20239;-74
2022/04/02 05:13:21;;;;;;;2.05;1.10;;;;;;;18.60;39.83;93080.88;5011214;28;20212;-74
2022/04/02 05:15:48;;;;;;;1.70;0.85;;;;;;;18.40;38.73;93076.06;5011509;28;20225;-76
2022/04/02 05:18:16;;;;;;;5.50;1.20;;;;;;;18.62;40.05;93071.06;5010909;28;20205;-77
2022/04/02 05:20:44;;;;;;;3.15;0.77;;;;;;;19.36;36.25;93068.22;5011347;28;20201;-76
2022/04/02 05:23:11;;;;;;;0.98;0.60;;;;;;;19.59;34.89;93065.41;5012315;28;20208;-74
2022/04/02 05:25:39;;;;;;;2.97;1.00;;;;;;;19.00;37.46;93079.81;5030541;28;20204;-73
2022/04/02 05:28:06;;;;;;;1.48;0.80;;;;;;;17.95;39.98;93082.97;5031107;28;20298;-74
2022/04/02 05:30:34;;;;;;;2.90;0.80;;;;;;;17.48;39.58;93084.72;5030532;28;20228;-76
2022/04/02 05:33:01;;;;;;;3.95;1.00;;;;;;;16.15;44.22;93080.78;5030629;28;20212;-74
2022/04/02 05:35:28;;;;;;;2.42;1.40;;;;;;;15.75;44.91;93085.69;5030828;28;20291;-75
2022/04/02 05:37:56;;;;;;;3.65;1.05;;;;;;;17.21;42.66;93095.56;5017597;28;20212;-74
2022/04/02 05:40:24;;;;;;;1.63;0.85;;;;;;;17.53;41.71;93090.50;5030521;28;20692;-74
2022/04/02 05:42:51;;;;;;;1.85;0.90;;;;;;;16.56;43.62;93084.41;5017294;28;20204;-74
2022/04/02 05:45:18;;;;;;;3.60;1.35;;;;;;;16.02;45.68;93105.06;5028628;28;20224;-75
2022/04/02 05:47:46;;;;;;;4.07;1.17;;;;;;;15.23;45.72;93115.50;5019213;28;20217;-75
2022/04/02 05:50:14;;;;;;;1.55;0.90;;;;;;;14.30;48.13;93107.75;5023031;28;20561;-75
2022/04/02 05:52:42;;;;;;;1.55;0.80;;;;;;;14.37;47.91;93118.66;5017907;28;20212;-75
2022/04/02 05:55:11;;;;;;;2.17;0.93;;;;;;;14.08;49.05;93117.81;5022543;28;20197;-74
2022/04/02 05:57:40;;;;;;;4.65;1.02;;;;;;;14.12;48.46;93118.63;5019966;28;20200;-75
2022/04/02 06:00:10;;;;;;;1.60;1.00;;;;;;;13.60;49.25;93117.31;5021769;28;20188;-75
2022/04/02 06:02:37;;;;;;;2.80;1.00;;;;;;;13.40;50.22;93128.50;5022557;28;20841;-76
2022/04/02 06:05:06;;;;;;;3.30;1.63;;;;;;;13.23;51.53;93131.94;5018957;28;20205;-75
2022/04/02 06:07:33;;;;;;;4.18;1.42;;;;;;;13.20;50.63;93135.41;5018099;28;20200;-78
2022/04/02 06:10:01;;;;;;;2.20;1.00;;;;;;;12.79;51.79;93129.28;5019904;28;20314;-74
2022/04/02 06:12:30;;;;;;;3.33;0.70;;;;;;;12.70;49.32;93139.72;5022302;28;20684;-74
2022/04/02 06:14:57;;;;;;;2.05;0.65;;;;;;;12.70;50.04;93139.72;5029873;28;20197;-75
2022/04/02 06:17:23;;;;;;;1.85;0.80;;;;;;;12.45;49.39;93128.63;5024496;28;20204;-75
2022/04/02 06:19:50;;;;;;;1.67;0.85;;;;;;;12.31;50.35;93112.22;5028026;28;20205;-76
2022/04/02 06:22:17;;;;;;;1.83;0.80;;;;;;;12.22;50.88;93138.91;5022185;28;20891;-74
2022/04/02 06:24:44;;;;;;;1.63;0.60;;;;;;;12.28;49.55;93134.72;5031579;28;20196;-75
2022/04/02 06:27:11;;;;;;;2.78;0.70;;;;;;;12.35;49.29;93130.13;5020830;28;20211;-75
2022/04/02 06:29:39;;;;;;;1.55;1.20;;;;;;;12.43;48.83;93133.69;5021638;28;20707;-75
2022/04/02 06:32:07;;;;;;;2.08;1.33;;;;;;;12.39;50.00;93141.03;5013994;28;20220;-76
2022/04/02 06:34:34;;;;;;;2.15;1.50;;;;;;;12.40;49.99;93148.00;5013493;28;20213;-75
2022/04/02 06:37:00;;;;;;;1.55;0.80;;;;;;;12.45;49.33;93150.38;5019133;28;20205;-73
2022/04/02 06:39:27;;;;;;;1.52;0.88;;;;;;;12.33;48.97;93143.28;5012954;28;20216;-76
2022/04/02 06:41:55;;;;;;;4.80;2.30;;;;;;;12.45;49.67;93139.50;5013674;28;20201;-76
2022/04/02 06:44:21;;;;;;;2.47;1.17;;;;;;;12.42;49.77;93145.72;5013027;28;20240;-77
2022/04/02 06:46:50;;;;;;;3.78;1.25;;;;;;;12.37;50.12;93125.09;5012927;28;20220;-72
2022/04/02 06:49:17;;;;;;;5.30;1.00;;;;;;;12.41;50.05;93176.72;5013079;28;20212;-76
2022/04/02 06:51:43;;;;;;;3.85;0.77;;;;;;;12.46;49.15;93147.28;5013032;28;20209;-73
2022/04/02 06:54:10;;;;;;;1.02;0.73;;;;;;;12.54;48.77;93169.88;5013850;28;20216;-77
2022/04/02 06:56:37;;;;;;;1.42;0.70;;;;;;;12.50;49.29;93163.63;5013295;28;20208;-72
2022/04/02 06:59:04;;;;;;;6.57;0.70;;;;;;;12.56;48.29;93167.56;5012924;28;20208;-76
2022/04/02 07:01:31;;;;;;;2.47;0.70;;;;;;;12.49;50.51;93170.19;5013316;28;20213;-76
2022/04/02 07:03:59;;;;;;;4.10;1.23;;;;;;;12.56;49.11;93181.13;5027504;28;20675;-73
2022/04/02 07:06:26;;;;;;;1.27;0.57;;;;;;;12.48;49.40;93165.91;5033091;28;20647;-72
2022/04/02 07:08:53;;;;;;;2.35;0.90;;;;;;;12.51;49.85;93181.47;5028144;28;20205;-74
2022/04/02 07:11:19;;;;;;;2.88;0.70;;;;;;;12.67;48.11;93195.59;5018413;28;20442;-75
2022/04/02 07:13:46;;;;;;;0.80;0.70;;;;;;;12.73;47.34;93185.13;5026730;28;20208;-77
2022/04/02 07:16:13;;;;;;;3.50;1.45;;;;;;;12.84;47.72;93183.31;5022562;28;20224;-75
2022/04/02 07:18:44;;;;;;;0.85;0.52;;;;;;;12.80;47.94;93166.97;5028642;28;20238;-74
2022/04/02 07:21:14;;;;;;;1.20;0.90;;;;;;;12.81;48.12;93173.97;5031808;28;20757;-76
2022/04/02 07:23:42;;;;;;;3.35;0.85;;;;;;;12.75;48.13;93191.75;5026445;28;20204;-76
2022/04/02 07:26:10;;;;;;;1.25;0.77;;;;;;;12.92;47.62;93197.72;5026190;28;20758;-71
2022/04/02 07:28:38;;;;;;;3.13;0.70;;;;;;;12.93;47.77;93202.00;5015094;28;20247;-74
2022/04/02 07:31:05;;;;;;;1.17;0.80;;;;;;;12.91;46.81;93194.22;5012924;28;20237;-72
2022/04/02 07:33:32;;;;;;;2.90;0.70;;;;;;;12.98;46.67;93212.53;5013400;28;20213;-74
2022/04/02 07:36:08;;;;;;;3.35;0.77;;;;;;;13.20;45.60;93206.09;5012138;28;20212;-75
2022/04/02 07:38:40;;;;;;;1.70;0.85;;;;;;;13.14;47.66;93204.84;5012889;28;20292;-75
2022/04/02 07:41:18;;;;;;;2.45;0.80;;;;;;;13.24;47.72;93203.41;5012787;28;20633;-75
2022/04/02 07:43:51;;;;;;;3.42;0.55;;;;;;;13.19;46.96;93196.38;5012353;28;20320;-76
2022/04/02 07:46:22;;;;;;;0.40;0.40;;;;;;;13.14;44.99;93167.59;5012362;28;20209;-74
2022/04/02 07:48:49;;;;;;;1.27;0.80;;;;;;;13.11;46.65;93183.88;5012509;28;20205;-76
2022/04/02 07:51:18;;;;;;;3.63;0.77;;;;;;;13.20;45.20;93149.00;5012155;28;20298;-75
2022/04/02 07:53:50;;;;;;;1.90;0.82;;;;;;;13.31;46.06;93146.34;5011273;28;20731;-72
2022/04/02 07:56:20;;;;;;;2.03;0.65;;;;;;;13.50;46.09;93182.19;5012454;28;20228;-76
2022/04/02 07:58:52;;;;;;;5.40;2.35;;;;;;;13.53;46.25;93197.72;5012232;28;20209;-73
2022/04/02 08:01:20;;;;;;;8.32;3.58;;;;;;;13.43;46.76;93203.13;5012128;28;20287;-76
2022/04/02 08:03:48;;;;;;;1.98;0.82;;;;;;;13.82;44.70;93186.97;5012289;28;20279;-77
2022/04/02 08:06:15;;;;;;;3.05;0.98;;;;;;;14.38;45.17;93180.91;5012187;28;20299;-76
2022/04/02 08:08:44;;;;;;;0.77;0.70;;;;;;;14.90;43.46;93179.44;5012519;28;20232;-78
2022/04/02 08:11:13;;;;;;;1.42;0.80;;;;;;;14.92;43.27;93176.31;5032188;28;20264;-77
2022/04/02 08:13:43;;;;;;;3.60;0.90;;;;;;;15.02;42.08;93161.13;5016583;28;20201;-77
2022/04/02 08:16:11;;;;;;;2.95;0.93;;;;;;;14.89;42.74;93155.31;5019944;28;20216;-77
2022/04/02 08:18:40;;;;;;;3.08;1.02;;;;;;;15.60;42.13;93166.09;5032146;28;20215;-76
2022/04/02 08:21:08;;;;;;;0.50;0.50;;;;;;;15.84;40.49;93164.47;5022885;28;20252;-77
2022/04/02 08:23:35;;;;;;;3.38;1.23;;;;;;;15.89;39.70;93166.78;5013378;28;20207;-76
2022/04/02 08:26:21;;;;;;;2.08;0.95;;;;;;;16.34;38.53;93154.84;5020261;28;20216;-76
2022/04/02 08:29:03;;;;;;;2.78;1.08;;;;;;;17.12;38.15;93164.44;5025444;28;20205;-77
2022/04/02 08:31:42;;;;;;;1.17;0.75;;;;;;;17.21;36.98;93155.78;5011921;28;20591;-79
2022/04/02 08:34:19;;;;;;;1.02;0.70;;;;;;;17.08;37.07;93141.81;5011949;28;20209;-76
2022/04/02 08:36:55;;;;;;;1.60;1.00;;;;;;;17.04;38.76;93139.13;5011486;28;20209;-75
2022/04/02 08:39:29;;;;;;;4.82;0.80;;;;;;;16.89;37.75;93167.00;5011854;28;20360;-76
2022/04/02 08:42:39;;;;;;;2.33;0.90;;;;;;;17.65;38.10;93185.06;5011860;28;20208;-76
2022/04/02 08:45:09;;;;;;;2.47;0.98;;;;;;;17.66;37.27;93176.44;4991019;28;20704;-76
2022/04/02 08:48:13;;;;;;;2.10;0.80;;;;;;;17.36;37.04;93173.59;5012077;28;20204;-76
2022/04/02 08:50:45;;;;;;;4.00;0.70;;;;;;;17.15;37.04;93157.38;5011676;28;20228;-74
2022/04/02 08:53:21;;;;;;;1.45;0.65;;;;;;;17.67;36.82;93191.69;5010858;28;20664;-76
2022/04/02 08:55:50;;;;;;;2.20;0.47;;;;;;;18.02;36.49;93192.50;5010850;28;20656;-76
2022/04/02 08:58:24;;;;;;;2.70;0.80;;;;;;;17.67;37.53;93199.91;5011130;28;20220;-76
2022/04/02 09:01:05;;;;;;;1.20;0.80;;;;;;;17.45;37.41;93186.81;5011209;28;20637;-78
2022/04/02 09:04:10;;;;;;;2.40;0.90;;;;;;;17.70;38.09;93176.41;5010965;28;20560;-75
2022/04/02 09:07:12;;;;;;;1.20;0.80;;;;;;;17.26;39.53;93174.47;5011050;28;20252;-75
2022/04/02 09:10:08;;;;;;;2.05;0.90;;;;;;;17.27;39.35;93187.75;5019081;28;20196;-76
2022/04/02 09:12:41;;;;;;;2.55;0.80;;;;;;;17.47;39.01;93173.50;5012582;28;20209;-75
2022/04/02 09:15:13;;;;;;;3.45;0.90;;;;;;;17.56;38.94;93158.16;5010993;28;20229;-77
2022/04/02 09:17:59;;;;;;;1.73;0.77;;;;;;;17.75;38.43;93157.59;5010453;28;20295;-77
2022/04/02 09:20:47;;;;;;;1.77;0.82;;;;;;;17.49;38.78;93177.41;5010528;28;20237;-74
2022/04/02 09:23:16;;;;;;;2.85;0.80;;;;;;;17.81;39.01;93165.34;5012485;28;20209;-78
2022/04/02 09:26:20;;;;;;;1.30;0.65;;;;;;;17.95;39.22;93167.91;5011078;28;20214;-77
2022/04/02 09:29:05;;;;;;;1.65;0.77;;;;;;;17.78;38.48;93161.44;5011388;28;20212;-77
2022/04/02 09:32:17;;;;;;;2.47;0.80;;;;;;;17.69;38.44;93164.69;5010943;28;20224;-77
2022/04/02 09:35:23;;;;;;;2.08;0.57;;;;;;;17.75;38.78;93143.91;5029984;28;20206;-75
2022/04/02 09:38:17;;;;;;;1.30;0.80;;;;;;;17.29;38.68;93136.13;5023777;28;20651;-77
2022/04/02 09:40:48;;;;;;;2.75;0.77;;;;;;;17.77;38.00;93146.19;5020700;28;20675;-77
2022/04/02 09:43:23;;;;;;;1.38;0.75;;;;;;;17.66;37.74;93143.59;5029957;28;20196;-78
2022/04/02 09:46:04;;;;;;;1.88;0.85;;;;;;;17.63;36.00;93155.34;5030753;28;20265;-77
2022/04/02 09:48:47;;;;;;;1.42;0.60;;;;;;;17.34;37.34;93170.50;5028352;28;20232;-78
2022/04/02 09:51:17;;;;;;;2.17;0.75;;;;;;;17.39;36.74;93190.00;5031023;28;20213;-76
2022/04/02 09:53:58;;;;;;;3.15;0.60;;;;;;;17.72;37.73;93172.09;5032199;28;20196;-78
2022/04/02 09:56:28;;;;;;;1.13;0.70;;;;;;;17.45;37.73;93173.91;5032554;28;20215;-77
2022/04/02 09:59:04;;;;;;;1.58;0.95;;;;;;;17.71;38.67;93194.41;5031246;28;20541;-76
2022/04/02 10:01:35;;;;;;;1.75;1.40;;;;;;;17.71;38.34;93177.97;5033845;28;20691;-77
2022/04/02 10:04:11;;;;;;;1.33;0.90;;;;;;;17.75;37.89;93160.31;5034457;28;20209;-75
2022/04/02 10:06:41;;;;;;;2.35;1.30;;;;;;;18.19;38.67;93163.31;5032631;28;20265;-77
2022/04/02 10:09:10;;;;;;;1.05;0.82;;;;;;;17.73;37.39;93176.38;5018149;28;20297;-72
2022/04/02 10:11:43;;;;;;;2.20;1.10;;;;;;;17.72;36.52;93152.13;5023049;28;20320;-75
2022/04/02 10:14:11;;;;;;;1.30;0.80;;;;;;;17.46;36.16;93152.78;5014331;28;20280;-77
2022/04/02 10:16:41;;;;;;;1.70;0.90;;;;;;;17.74;36.57;93141.56;5013957;28;20253;-76
2022/04/02 10:19:10;;;;;;;2.30;0.85;;;;;;;17.99;36.46;93154.97;5013407;28;20224;-79
2022/04/02 10:21:39;;;;;;;2.15;1.08;;;;;;;18.13;36.46;93148.50;5014063;28;20216;-77
2022/04/02 10:24:23;;;;;;;3.03;1.00;;;;;;;17.87;35.20;93158.22;5022287;28;20691;-79
2022/04/02 10:26:54;;;;;;;2.95;1.17;;;;;;;17.63;34.89;93144.41;5029647;28;20200;-77
2022/04/02 10:29:32;;;;;;;1.35;0.90;;;;;;;17.59;36.53;93151.09;5033511;28;20212;-75
2022/04/02 10:32:02;;;;;;;2.83;0.88;;;;;;;17.16;35.27;93137.06;5016161;28;20271;-74
2022/04/02 10:34:38;;;;;;;0.88;0.60;;;;;;;17.49;36.57;93144.56;5013538;28;20259;-78
2022/04/02 10:37:10;;;;;;;2.03;0.80;;;;;;;17.86;35.16;93126.53;5019925;28;20257;-77
2022/04/02 10:39:46;;;;;;;0.95;0.70;;;;;;;17.98;35.18;93148.69;5020290;28;20279;-76
2022/04/02 10:42:18;;;;;;;1.10;0.70;;;;;;;17.91;35.46;93124.13;5014330;28;20630;-81
2022/04/02 10:44:48;;;;;;;0.60;0.60;;;;;;;17.77;35.21;93126.28;5028059;28;20278;-75
2022/04/02 10:47:18;;;;;;;2.25;0.75;;;;;;;17.66;35.23;93116.19;5033709;28;20714;-76
2022/04/02 10:49:50;;;;;;;2.92;0.80;;;;;;;18.21;35.23;93145.25;5020027;28;20202;-78
2022/04/02 10:52:17;;;;;;;3.53;0.70;;;;;;;17.97;34.32;93129.91;5033481;28;20653;-80
2022/04/02 10:54:49;;;;;;;1.85;0.60;;;;;;;17.77;35.58;93127.81;5033306;28;20215;-77
2022/04/02 10:57:18;;;;;;;2.40;0.80;;;;;;;18.23;37.36;93120.97;5033409;28;20200;-80
2022/04/02 10:59:48;;;;;;;1.95;0.82;;;;;;;18.13;34.42;93123.84;5031872;28;20212;-84
2022/04/02 11:02:22;;;;;;;2.35;0.77;;;;;;;18.17;35.26;93121.84;5033074;28;20307;-81
2022/04/02 11:04:58;;;;;;;0.98;0.80;;;;;;;18.00;33.59;93118.94;5033043;28;20231;-77
2022/04/02 11:07:29;;;;;;;0.55;0.52;;;;;;;17.90;34.84;93130.03;5017688;28;20722;-73
2022/04/02 11:09:59;;;;;;;1.45;0.70;;;;;;;17.75;35.22;93141.16;5023683;28;20216;-75
2022/04/02 11:12:33;;;;;;;3.70;0.70;;;;;;;17.45;36.77;93148.50;5014443;28;20323;-75
2022/04/02 11:15:09;;;;;;;2.00;0.70;;;;;;;16.96;41.58;93167.69;5012816;28;20231;-78
2022/04/02 11:17:38;;;;;;;3.90;1.05;;;;;;;16.30;46.67;93189.59;5013131;28;20232;-78
2022/04/02 11:20:12;;;;;;;6.55;1.45;;;;;;;15.24;53.91;93209.03;5012931;28;20212;-75
2022/04/02 11:22:59;;;;;;;4.68;1.58;;;;;;;14.01;57.62;93194.84;5024060;28;20559;-75
2022/04/02 11:25:28;;;;;;;4.85;1.40;;;;;;;13.49;61.40;93194.25;5031931;28;20266;-76
2022/04/02 11:27:59;;;;;;;3.60;1.60;;;;;;;13.58;57.82;93195.81;5032191;28;20682;-76
2022/04/02 11:30:29;;;;;;;3.42;1.65;;;;;;;13.83;57.00;93204.88;5032135;28;20283;-74
2022/04/02 11:33:05;;;;;;;1.35;1.25;;;;;;;13.81;59.89;93218.09;5032865;28;20236;-74
2022/04/02 11:35:37;;;;;;;1.95;1.38;;;;;;;14.05;59.95;93232.97;5024093;28;20231;-75
2022/04/02 11:38:10;;;;;;;1.30;0.77;;;;;;;13.96;53.68;93224.38;5024114;28;20295;-76
2022/04/02 11:40:42;;;;;;;4.32;0.90;;;;;;;13.46;53.52;93219.47;5031770;28;20205;-76
2022/04/02 11:43:12;;;;;;;1.55;0.98;;;;;;;12.87;56.33;93208.91;5030300;28;20569;-82
2022/04/02 11:45:41;;;;;;;1.42;0.95;;;;;;;12.37;56.99;93220.13;5012686;28;20267;-82
2022/04/02 11:48:10;;;;;;;4.95;0.90;;;;;;;12.49;57.00;93248.97;5012461;28;20209;-79
2022/04/02 11:50:43;;;;;;;2.15;1.23;;;;;;;12.47;60.16;93248.53;5011951;28;20209;-85
2022/04/02 11:53:10;;;;;;;0.82;0.77;;;;;;;12.06;60.74;93264.00;5019233;28;20204;-77